createdAt,value
2022-09-14T00:03:26.539Z,1000.519
2022-09-14T00:08:29.095Z,1000.535
2022-09-14T00:13:31.726Z,1000.463
2022-09-14T00:23:36.786Z,1000.348
2022-09-14T00:28:39.451Z,1000.278
2022-09-14T00:33:41.920Z,1000.265
2022-09-14T00:38:44.643Z,1000.184
2022-09-14T00:43:47.271Z,1000.236
2022-09-14T00:48:49.929Z,1000.159
2022-09-14T00:53:52.545Z,1000.049
2022-09-14T00:58:55.402Z,999.9523
2022-09-14T01:03:58.190Z,999.9567
2022-09-14T01:09:01.203Z,999.9515
2022-09-14T01:19:06.238Z,999.8812
2022-09-14T01:29:11.508Z,999.8441
2022-09-14T01:34:14.171Z,999.8805
2022-09-14T01:39:17.266Z,999.8108
2022-09-14T01:49:22.891Z,999.9191
2022-09-14T01:59:27.836Z,999.9423
2022-09-14T03:16:51.202Z,999.6884
2022-09-14T03:21:53.970Z,999.7645
2022-09-14T03:26:56.650Z,999.7623
2022-09-14T03:31:59.634Z,999.7303
2022-09-14T03:37:02.226Z,999.5933
2022-09-14T03:47:07.540Z,999.5317
2022-09-14T03:52:10.237Z,999.5101
2022-09-14T04:02:15.791Z,999.5335
2022-09-14T04:07:18.573Z,999.5994
2022-09-14T04:12:21.143Z,999.6433
2022-09-14T04:17:23.979Z,999.7128
2022-09-14T04:22:26.457Z,999.5837
2022-09-14T04:27:29.108Z,999.4847
2022-09-14T04:32:34.337Z,999.3702
2022-09-14T04:37:34.120Z,999.4899
2022-09-14T04:42:36.850Z,999.5533
2022-09-14T04:47:39.336Z,999.5294
2022-09-14T04:57:44.479Z,999.4483
2022-09-14T05:02:47.252Z,999.4117
2022-09-14T05:07:49.986Z,999.3425
2022-09-14T05:12:52.901Z,999.3358
2022-09-14T05:17:55.697Z,999.3372
2022-09-14T05:22:58.801Z,999.4241
2022-09-14T05:28:01.470Z,999.3065
2022-09-14T05:38:07.010Z,999.4268
2022-09-14T05:43:09.688Z,999.3909
2022-09-14T05:48:12.269Z,999.4238
2022-09-14T05:53:15.113Z,999.466
2022-09-14T05:58:17.810Z,999.3875
2022-09-14T06:08:23.195Z,999.1667
2022-09-14T06:13:25.924Z,999.2065
2022-09-14T06:18:28.661Z,999.1429
2022-09-14T06:23:31.649Z,999.0422
2022-09-14T06:28:34.491Z,999.0278
2022-09-14T06:33:36.956Z,999.0421
2022-09-14T06:38:39.966Z,998.9698
2022-09-14T06:43:45.379Z,998.9675
2022-09-14T06:48:48.130Z,999.0056
2022-09-14T06:54:08.787Z,999.0295
2022-09-14T06:59:11.678Z,999.0276
2022-09-14T07:04:14.260Z,999.1429
2022-09-14T07:09:16.972Z,999.1566
2022-09-14T07:14:19.530Z,999.1445
2022-09-14T07:19:22.558Z,999.1487
2022-09-14T07:24:43.422Z,999.1453
2022-09-14T07:29:46.194Z,999.0753
2022-09-14T07:34:48.987Z,999.091
2022-09-14T07:39:51.627Z,999.0925
2022-09-14T07:44:54.476Z,999.1101
2022-09-14T07:49:57.301Z,999.1714
2022-09-14T07:55:00.041Z,999.1384
2022-09-14T08:00:02.713Z,999.1644
2022-09-14T08:05:05.421Z,999.1833
2022-09-14T08:10:08.211Z,999.2148
2022-09-14T08:15:10.660Z,999.1686
2022-09-14T08:20:13.365Z,999.2216
2022-09-14T08:25:15.973Z,999.1797
2022-09-14T08:30:18.792Z,999.1758
2022-09-14T08:35:40.983Z,999.1638
2022-09-14T08:40:27.244Z,999.1264
2022-09-14T08:45:29.976Z,999.113
2022-09-14T08:50:35.754Z,999.1023
2022-09-14T08:55:35.166Z,999.0416
2022-09-14T09:00:37.835Z,999.1238
2022-09-14T09:05:40.468Z,999.0044
2022-09-14T09:10:43.322Z,998.9836
2022-09-14T09:15:45.706Z,999.0257
2022-09-14T09:20:48.294Z,998.9606
2022-09-14T09:25:51.060Z,999.0123
2022-09-14T09:30:54.003Z,998.9433
2022-09-14T09:35:56.588Z,998.9559
2022-09-14T09:40:58.944Z,998.9627
2022-09-14T09:46:01.555Z,998.8597
2022-09-14T09:51:04.599Z,998.8326
2022-09-14T09:56:07.350Z,998.7872
2022-09-14T10:01:12.357Z,998.8264
2022-09-14T10:06:12.752Z,998.6847
2022-09-14T10:11:17.956Z,998.6672
2022-09-14T10:16:20.833Z,998.6295
2022-09-14T10:21:23.110Z,998.6395
2022-09-14T10:26:25.636Z,998.7175
2022-09-14T10:31:31.127Z,998.6617
2022-09-14T10:36:33.572Z,998.6284
2022-09-14T10:46:39.167Z,998.4906
2022-09-14T10:56:44.333Z,998.4026
2022-09-14T11:01:47.162Z,998.3873
2022-09-14T11:06:49.642Z,998.4835
2022-09-14T11:11:52.168Z,998.483
2022-09-14T11:16:54.641Z,998.3787
2022-09-14T11:21:57.268Z,998.4637
2022-09-14T11:27:00.243Z,998.4185
2022-09-14T11:32:20.166Z,998.4598
2022-09-14T11:37:05.190Z,998.4666
2022-09-14T11:42:13.884Z,998.4866
2022-09-14T11:52:22.021Z,998.3054
2022-09-14T11:57:24.719Z,998.2905
2022-09-14T12:02:27.622Z,998.3464
2022-09-14T12:07:30.286Z,998.2189
2022-09-14T12:12:50.974Z,998.3164
2022-09-14T12:17:53.887Z,998.2798
2022-09-14T12:22:56.479Z,998.2888
2022-09-14T12:28:04.242Z,998.2706
2022-09-14T12:33:06.813Z,998.2414
2022-09-14T12:38:09.675Z,998.2015
2022-09-14T12:43:14.846Z,998.2094
2022-09-14T12:48:17.483Z,998.145
2022-09-14T12:53:20.464Z,998.1198
2022-09-14T13:03:25.877Z,997.9508
2022-09-14T13:18:33.457Z,997.6451
2022-09-14T13:23:35.659Z,997.5572
2022-09-14T13:28:38.420Z,997.5041
2022-09-14T13:33:41.067Z,997.555
2022-09-14T13:38:44.187Z,997.4973
2022-09-14T13:43:46.811Z,997.5461
2022-09-14T13:48:49.661Z,997.488
2022-09-14T13:53:52.433Z,997.4079
2022-09-14T13:58:54.923Z,997.4891
2022-09-14T14:03:57.783Z,997.3412
2022-09-14T14:09:00.537Z,997.3289
2022-09-14T14:14:03.076Z,997.2791
2022-09-14T14:19:05.863Z,997.1997
2022-09-14T14:24:13.245Z,997.1406
2022-09-14T14:29:10.843Z,997.1024
2022-09-14T14:34:13.861Z,997.0461
2022-09-14T14:39:16.485Z,997.0639
2022-09-14T14:44:18.820Z,996.9927
2022-09-14T14:49:21.504Z,997.0503
2022-09-14T14:54:24.329Z,996.9441
2022-09-14T14:59:26.747Z,997.0195
2022-09-14T15:04:29.425Z,997.0087
2022-09-14T15:09:32.037Z,996.9819
2022-09-14T15:14:34.765Z,996.9556
2022-09-14T15:19:39.966Z,996.8572
2022-09-14T15:24:42.615Z,996.808
2022-09-14T15:29:45.391Z,996.7255
2022-09-14T15:34:47.950Z,996.8008
2022-09-14T15:39:50.568Z,996.7814
2022-09-14T15:44:53.239Z,996.6975
2022-09-14T15:49:55.901Z,996.6863
2022-09-14T15:54:58.484Z,996.7186
2022-09-14T16:00:01.638Z,996.7123
2022-09-14T16:05:04.201Z,996.7907
2022-09-14T16:10:06.608Z,996.7782
2022-09-14T16:15:09.391Z,996.7772
2022-09-14T16:20:15.029Z,996.7794
2022-09-14T16:25:17.855Z,996.6841
2022-09-14T16:30:20.531Z,996.733
2022-09-14T16:35:23.134Z,996.7799
2022-09-14T16:40:25.696Z,996.7425
2022-09-14T16:50:30.980Z,996.7104
2022-09-14T16:55:33.584Z,996.6301
2022-09-14T17:00:36.395Z,996.7189
2022-09-14T17:05:39.509Z,996.6699
2022-09-14T17:10:42.262Z,996.5698
2022-09-14T17:15:45.100Z,996.5894
2022-09-14T17:20:47.759Z,996.5133
2022-09-14T17:25:50.615Z,996.48
2022-09-14T17:30:53.394Z,996.3822
2022-09-14T17:35:55.957Z,996.3984
2022-09-14T17:40:58.665Z,996.3406
2022-09-14T17:46:01.388Z,996.4001
2022-09-14T17:51:03.945Z,996.5073
2022-09-14T17:56:06.490Z,996.4579
2022-09-14T18:01:09.143Z,996.4377
2022-09-14T18:06:11.554Z,996.4122
2022-09-14T18:11:14.322Z,996.3173
2022-09-14T18:16:17.085Z,996.2483
2022-09-14T18:21:19.935Z,996.2281
2022-09-14T18:26:22.790Z,996.1122
2022-09-14T18:31:25.485Z,996.1849
2022-09-14T18:36:29.165Z,996.135
2022-09-14T18:41:30.393Z,996.2037
2022-09-14T18:46:32.969Z,996.2108
2022-09-14T18:51:35.700Z,996.1652
2022-09-14T18:56:41.202Z,996.1965
2022-09-14T19:06:47.094Z,996.1637
2022-09-14T19:11:49.858Z,996.2572
2022-09-14T19:16:52.528Z,996.1191
2022-09-14T19:27:25.608Z,996.173
2022-09-14T19:32:28.216Z,996.2637
2022-09-14T19:37:30.761Z,996.3006
2022-09-14T19:42:33.305Z,996.2347
2022-09-14T19:47:36.002Z,996.2644
2022-09-14T19:52:38.901Z,996.2684
2022-09-14T20:02:44.424Z,996.2194
2022-09-14T20:07:46.733Z,996.2366
2022-09-14T20:12:49.395Z,996.2939
2022-09-14T20:17:54.927Z,996.2394
2022-09-14T20:22:57.451Z,996.2483
2022-09-14T20:28:03.258Z,996.1687
2022-09-14T20:33:05.879Z,996.2258
2022-09-14T20:38:08.549Z,996.1379
2022-09-14T20:53:16.692Z,996.3251
2022-09-14T20:58:19.269Z,996.285
2022-09-14T21:03:22.093Z,996.2488
2022-09-14T21:13:27.283Z,996.1608
2022-09-14T21:18:29.986Z,996.1669
2022-09-14T21:23:32.768Z,996.2644
2022-09-14T21:28:38.391Z,996.2658
2022-09-14T21:33:41.057Z,996.2644
2022-09-14T21:43:46.195Z,996.2234
2022-09-14T21:48:52.116Z,996.2134
2022-09-14T21:53:54.471Z,996.2327
2022-09-14T21:58:57.204Z,996.2428
2022-09-14T22:03:59.718Z,996.2217
2022-09-14T22:09:02.579Z,996.2047
2022-09-14T22:14:05.159Z,996.1113
2022-09-14T22:19:08.075Z,996.177
2022-09-14T22:24:10.657Z,996.0551
2022-09-14T22:29:13.414Z,996.098
2022-09-14T22:34:16.081Z,996.0577
2022-09-14T22:39:18.877Z,996.008
2022-09-14T22:44:21.394Z,996.123
2022-09-14T22:54:26.859Z,996.0895
2022-09-14T22:59:29.749Z,996.1014
2022-09-14T23:09:35.144Z,996.0894
2022-09-14T23:14:37.665Z,996.1139
2022-09-14T23:19:40.342Z,996.0525
2022-09-14T23:24:42.990Z,996.0239
2022-09-14T23:29:45.428Z,996.0828
2022-09-14T23:34:47.970Z,995.9763
2022-09-14T23:39:50.834Z,995.9895
2022-09-14T23:44:53.459Z,995.9786
2022-09-14T23:49:56.015Z,995.9222
